Time,TemperatureF,DewpointF,PressureIn,WindDirection,WindDirectionDegrees,WindSpeedMPH,WindSpeedGustMPH,Humidity,HourlyPrecipIn,Conditions,Clouds,dailyrainin,SoftwareType,DateUTC
2013-03-04 08:05:00,30.4,28.9,29.78,NW,315,0.0,0.0,94,0.00,,,0.00,Wunderground v.1.15,2013-03-04 14:05:00,
2013-03-04 08:15:00,30.7,29.2,29.79,West,264,0.0,0.0,94,0.00,,,0.00,Wunderground v.1.15,2013-03-04 14:15:00,
2013-03-04 08:25:00,31.2,29.7,29.79,WNW,302,0.0,2.0,94,0.00,,,0.00,Wunderground v.1.15,2013-03-04 14:25:00,
2013-03-04 08:35:00,32.5,31.2,29.79,NW,314,3.0,3.0,95,0.00,,,0.00,Wunderground v.1.15,2013-03-04 14:35:00,
2013-03-04 08:45:00,33.3,32.0,29.80,NW,318,5.0,10.0,95,0.00,,,0.00,Wunderground v.1.15,2013-03-04 14:45:00,
2013-03-04 08:50:00,33.5,32.0,29.80,NW,319,7.0,7.0,94,0.00,,,0.00,Wunderground v.1.15,2013-03-04 14:50:00,
2013-03-04 09:00:00,33.7,31.9,29.80,West,281,6.0,6.0,93,0.00,,,0.00,Wunderground v.1.15,2013-03-04 15:00:00,
2013-03-04 09:05:00,33.7,31.9,29.80,NW,308,6.0,6.0,93,0.00,,,0.00,Wunderground v.1.15,2013-03-04 15:05:00,
2013-03-04 09:15:00,33.7,31.9,29.80,NNW,335,6.0,7.0,93,0.00,,,0.00,Wunderground v.1.15,2013-03-04 15:15:00,
2013-03-04 09:25:00,33.9,32.1,29.80,NNW,342,5.0,6.0,93,0.00,,,0.00,Wunderground v.1.15,2013-03-04 15:25:00,
2013-03-04 09:35:00,34.3,32.5,29.80,NNW,328,5.0,9.0,93,0.00,,,0.00,Wunderground v.1.15,2013-03-04 15:35:00,
2013-03-04 09:45:00,34.5,32.4,29.81,NNW,335,5.0,5.0,92,0.00,,,0.00,Wunderground v.1.15,2013-03-04 15:45:00,
2013-03-04 09:50:00,34.7,32.6,29.81,North,349,6.0,6.0,92,0.00,,,0.00,Wunderground v.1.15,2013-03-04 15:50:00,
2013-03-04 10:00:00,34.8,32.7,29.82,NW,309,7.0,7.0,92,0.00,,,0.00,Wunderground v.1.15,2013-03-04 16:00:00,
2013-03-04 10:05:00,34.8,32.7,29.83,NNW,334,6.0,7.0,92,0.00,,,0.00,Wunderground v.1.15,2013-03-04 16:05:00,
2013-03-04 10:15:00,35.1,32.7,29.82,WNW,300,6.0,7.0,91,0.00,,,0.00,Wunderground v.1.15,2013-03-04 16:15:00,
2013-03-04 10:25:00,35.6,33.0,29.82,NW,316,6.0,8.0,90,0.00,,,0.00,Wunderground v.1.15,2013-03-04 16:25:00,
2013-03-04 10:35:00,36.1,33.2,29.83,NNW,338,6.0,6.0,89,0.00,,,0.00,Wunderground v.1.15,2013-03-04 16:35:00,
2013-03-04 10:45:00,36.5,33.3,29.83,NNW,343,6.0,12.0,88,0.00,,,0.00,Wunderground v.1.15,2013-03-04 16:45:00,
2013-03-04 10:50:00,36.7,33.5,29.83,WNW,300,6.0,6.0,88,0.00,,,0.00,Wunderground v.1.15,2013-03-04 16:50:00,
2013-03-04 11:00:00,37.1,33.6,29.83,WNW,293,5.0,5.0,87,0.00,,,0.00,Wunderground v.1.15,2013-03-04 17:00:00,
2013-03-04 11:05:00,37.4,33.9,29.84,WNW,297,5.0,7.0,87,0.00,,,0.00,Wunderground v.1.15,2013-03-04 17:05:00,
2013-03-04 11:15:00,37.8,34.0,29.84,NW,316,5.0,7.0,86,0.00,,,0.00,Wunderground v.1.15,2013-03-04 17:15:00,
2013-03-04 11:25:00,38.3,33.9,29.84,NNW,337,5.0,5.0,84,0.00,,,0.00,Wunderground v.1.15,2013-03-04 17:25:00,
2013-03-04 11:35:00,39.2,34.5,29.84,NW,308,4.0,6.0,83,0.00,,,0.00,Wunderground v.1.15,2013-03-04 17:35:00,
2013-03-04 11:45:00,39.9,34.5,29.84,WNW,284,3.0,3.0,81,0.00,,,0.00,Wunderground v.1.15,2013-03-04 17:45:00,
2013-03-04 11:55:00,40.9,35.2,29.84,NW,319,3.0,5.0,80,0.00,,,0.00,Wunderground v.1.15,2013-03-04 17:55:00,
2013-03-04 12:00:00,41.4,34.7,29.84,NNW,330,4.0,4.0,77,0.00,,,0.00,Wunderground v.1.15,2013-03-04 18:00:00,
2013-03-04 12:10:00,42.3,32.8,29.84,NW,316,5.0,9.0,69,0.00,,,0.00,Wunderground v.1.15,2013-03-04 18:10:00,
2013-03-04 12:20:00,42.9,32.3,29.84,WNW,302,5.0,5.0,66,0.00,,,0.00,Wunderground v.1.15,2013-03-04 18:20:00,
2013-03-04 12:25:00,43.3,31.9,29.84,NNW,344,5.0,5.0,64,0.00,,,0.00,Wunderground v.1.15,2013-03-04 18:25:00,
2013-03-04 12:30:00,43.6,31.8,29.84,North,352,5.0,10.0,63,0.00,,,0.00,Wunderground v.1.15,2013-03-04 18:30:00,
2013-03-04 12:35:00,43.9,32.1,29.84,NW,305,5.0,10.0,63,0.00,,,0.00,Wunderground v.1.15,2013-03-04 18:35:00,
2013-03-04 12:45:00,44.5,30.6,29.84,WNW,302,5.0,5.0,58,0.00,,,0.00,Wunderground v.1.15,2013-03-04 18:45:00,
2013-03-04 12:55:00,44.6,30.3,29.84,NE,37,5.0,11.0,57,0.00,,,0.00,Wunderground v.1.15,2013-03-04 18:55:00,
2013-03-04 13:05:00,44.9,29.7,29.83,NW,324,5.0,11.0,55,0.00,,,0.00,Wunderground v.1.15,2013-03-04 19:05:00,
2013-03-04 13:10:00,45.1,29.9,29.83,NW,305,5.0,13.0,55,0.00,,,0.00,Wunderground v.1.15,2013-03-04 19:10:00,
2013-03-04 13:20:00,45.5,29.3,29.83,NNW,330,6.0,6.0,53,0.00,,,0.00,Wunderground v.1.15,2013-03-04 19:20:00,
2013-03-04 13:30:00,45.7,27.6,29.83,NNW,347,5.0,13.0,49,0.00,,,0.00,Wunderground v.1.15,2013-03-04 19:30:00,
2013-03-04 13:35:00,45.6,28.5,29.82,NNE,24,6.0,13.0,51,0.00,,,0.00,Wunderground v.1.15,2013-03-04 19:35:00,
2013-03-04 13:45:00,45.9,27.8,29.81,NW,326,5.0,11.0,49,0.00,,,0.00,Wunderground v.1.15,2013-03-04 19:45:00,
2013-03-04 13:55:00,45.7,26.6,29.81,NW,316,6.0,11.0,47,0.00,,,0.00,Wunderground v.1.15,2013-03-04 19:55:00,
2013-03-04 14:05:00,46.1,25.9,29.81,NW,317,6.0,7.0,45,0.00,,,0.00,Wunderground v.1.15,2013-03-04 20:05:00,
2013-03-04 14:10:00,46.1,25.4,29.81,NNW,338,6.0,6.0,44,0.00,,,0.00,Wunderground v.1.15,2013-03-04 20:10:00,
2013-03-04 14:20:00,46.4,27.8,29.81,NNW,330,5.0,5.0,48,0.00,,,0.00,Wunderground v.1.15,2013-03-04 20:20:00,
2013-03-04 14:30:00,46.3,27.2,29.81,NNE,26,5.0,5.0,47,0.00,,,0.00,Wunderground v.1.15,2013-03-04 20:30:00,
2013-03-04 14:35:00,46.3,27.2,29.81,North,359,5.0,12.0,47,0.00,,,0.00,Wunderground v.1.15,2013-03-04 20:35:00,
2013-03-04 14:40:00,46.3,27.7,29.81,NNW,345,5.0,13.0,48,0.00,,,0.00,Wunderground v.1.15,2013-03-04 20:40:00,
2013-03-04 14:55:00,46.5,25.7,29.82,NNW,344,5.0,11.0,44,0.00,,,0.00,Wunderground v.1.15,2013-03-04 20:55:00,
2013-03-04 15:00:00,46.7,26.5,29.82,North,6,4.0,11.0,45,0.00,,,0.00,Wunderground v.1.15,2013-03-04 21:00:00,
2013-03-04 15:15:00,46.6,25.3,29.84,NNW,347,5.0,6.0,43,0.00,,,0.00,Wunderground v.1.15,2013-03-04 21:15:00,
2013-03-04 15:25:00,46.2,24.9,29.85,WNW,302,6.0,6.0,43,0.00,,,0.00,Wunderground v.1.15,2013-03-04 21:25:00,
2013-03-04 15:35:00,45.8,25.1,29.86,NW,319,4.0,10.0,44,0.00,,,0.00,Wunderground v.1.15,2013-03-04 21:35:00,
2013-03-04 15:45:00,45.0,23.3,29.87,NW,307,5.0,11.0,42,0.00,,,0.00,Wunderground v.1.15,2013-03-04 21:45:00,
2013-03-04 15:50:00,44.2,23.1,29.88,NW,312,6.0,11.0,43,0.00,,,0.00,Wunderground v.1.15,2013-03-04 21:50:00,
2013-03-04 15:55:00,43.7,22.6,29.89,NW,312,7.0,11.0,43,0.00,,,0.00,Wunderground v.1.15,2013-03-04 21:55:00,
2013-03-04 16:05:00,43.0,23.1,29.89,NW,305,7.0,11.0,45,0.00,,,0.00,Wunderground v.1.15,2013-03-04 22:05:00,
2013-03-04 16:15:00,42.6,22.7,29.90,WNW,302,6.0,11.0,45,0.00,,,0.00,Wunderground v.1.15,2013-03-04 22:15:00,
2013-03-04 16:20:00,42.5,23.2,29.91,NW,316,6.0,13.0,46,0.00,,,0.00,Wunderground v.1.15,2013-03-04 22:20:00,
2013-03-04 16:25:00,42.4,23.1,29.91,NW,311,7.0,13.0,46,0.00,,,0.00,Wunderground v.1.15,2013-03-04 22:25:00,
2013-03-04 16:35:00,41.8,23.5,29.92,NW,307,7.0,11.0,48,0.00,,,0.00,Wunderground v.1.15,2013-03-04 22:35:00,
2013-03-04 16:45:00,41.5,23.7,29.93,NW,323,5.0,11.0,49,0.00,,,0.00,Wunderground v.1.15,2013-03-04 22:45:00,
2013-03-04 16:55:00,41.1,23.4,29.93,WNW,293,4.0,6.0,49,0.00,,,0.00,Wunderground v.1.15,2013-03-04 22:55:00,
2013-03-04 17:00:00,41.1,24.3,29.93,NNW,329,3.0,3.0,51,0.00,,,0.00,Wunderground v.1.15,2013-03-04 23:00:00,
2013-03-04 17:05:00,40.9,25.1,29.92,WNW,283,2.0,11.0,53,0.00,,,0.00,Wunderground v.1.15,2013-03-04 23:05:00,
2013-03-04 17:15:00,40.6,24.8,29.92,North,360,1.0,11.0,53,0.00,,,0.00,Wunderground v.1.15,2013-03-04 23:15:00,
2013-03-04 17:25:00,40.5,25.1,29.92,NW,315,1.0,11.0,54,0.00,,,0.00,Wunderground v.1.15,2013-03-04 23:25:00,
2013-03-04 17:30:00,40.5,25.1,29.92,NW,314,1.0,11.0,54,0.00,,,0.00,Wunderground v.1.15,2013-03-04 23:30:00,
2013-03-04 17:40:00,40.7,25.3,29.94,NNW,333,2.0,2.0,54,0.00,,,0.00,Wunderground v.1.15,2013-03-04 23:40:00,
2013-03-04 17:45:00,40.6,25.2,29.94,NNE,13,1.0,11.0,54,0.00,,,0.00,Wunderground v.1.15,2013-03-04 23:45:00,
2013-03-04 17:55:00,40.1,26.1,29.95,NNW,328,1.0,11.0,57,0.00,,,0.00,Wunderground v.1.15,2013-03-04 23:55:00,
2013-03-04 18:00:00,39.6,26.8,29.96,North,1,1.0,1.0,60,0.00,,,0.00,Wunderground v.1.15,2013-03-05 00:00:00,
2013-03-04 18:10:00,38.7,26.8,29.97,NW,319,0.0,0.0,62,0.00,,,0.00,Wunderground v.1.15,2013-03-05 00:10:00,
2013-03-04 18:15:00,38.5,26.6,29.98,WNW,295,1.0,2.0,62,0.00,,,0.00,Wunderground v.1.15,2013-03-05 00:15:00,
2013-03-04 18:25:00,38.4,24.5,29.99,NW,321,3.0,4.0,57,0.00,,,0.00,Wunderground v.1.15,2013-03-05 00:25:00,
2013-03-04 18:30:00,38.4,24.1,29.99,NW,321,3.0,3.0,56,0.00,,,0.00,Wunderground v.1.15,2013-03-05 00:30:00,
2013-03-04 18:40:00,38.2,23.9,30.00,WNW,302,3.0,3.0,56,0.00,,,0.00,Wunderground v.1.15,2013-03-05 00:40:00,
2013-03-04 18:45:00,38.1,23.3,30.00,NW,318,4.0,4.0,55,0.00,,,0.00,Wunderground v.1.15,2013-03-05 00:45:00,
2013-03-04 18:55:00,37.8,23.9,30.01,WNW,295,3.0,4.0,57,0.00,,,0.00,Wunderground v.1.15,2013-03-05 00:55:00,
2013-03-04 19:05:00,36.7,19.8,30.02,NW,309,8.0,11.0,50,0.00,,,0.00,Wunderground v.1.15,2013-03-05 01:05:00,
2013-03-04 19:15:00,35.8,18.0,30.03,NW,307,9.0,10.0,48,0.00,,,0.00,Wunderground v.1.15,2013-03-05 01:15:00,
2013-03-04 19:25:00,35.3,18.0,30.05,NW,311,7.0,8.0,49,0.00,,,0.00,Wunderground v.1.15,2013-03-05 01:25:00,
2013-03-04 19:30:00,35.1,18.3,30.05,NW,311,7.0,7.0,50,0.00,,,0.00,Wunderground v.1.15,2013-03-05 01:30:00,
2013-03-04 19:40:00,34.6,17.4,30.07,WNW,302,8.0,8.0,49,0.00,,,0.00,Wunderground v.1.15,2013-03-05 01:40:00,
2013-03-04 19:45:00,34.3,17.6,30.06,NNW,329,7.0,8.0,50,0.00,,,0.00,Wunderground v.1.15,2013-03-05 01:45:00,
2013-03-04 19:55:00,33.9,17.7,30.07,NW,321,6.0,9.0,51,0.00,,,0.00,Wunderground v.1.15,2013-03-05 01:55:00,
2013-03-04 20:05:00,33.7,15.1,30.06,WNW,297,8.0,9.0,46,0.00,,,0.00,Wunderground v.1.15,2013-03-05 02:05:00,
2013-03-04 20:15:00,33.4,14.3,30.07,NW,314,9.0,13.0,45,0.00,,,0.00,Wunderground v.1.15,2013-03-05 02:15:00,
2013-03-04 20:25:00,33.1,15.0,30.08,NW,311,8.0,9.0,47,0.00,,,0.00,Wunderground v.1.15,2013-03-05 02:25:00,
2013-03-04 20:30:00,32.9,15.8,30.09,NW,305,7.0,9.0,49,0.00,,,0.00,Wunderground v.1.15,2013-03-05 02:30:00,
2013-03-04 20:40:00,32.3,14.8,30.10,NW,318,10.0,10.0,48,0.00,,,0.00,Wunderground v.1.15,2013-03-05 02:40:00,
2013-03-04 20:45:00,32.0,13.5,30.09,WNW,300,9.0,11.0,46,0.00,,,0.00,Wunderground v.1.15,2013-03-05 02:45:00,
2013-03-04 20:55:00,31.3,13.9,30.09,WNW,300,9.0,13.0,48,0.00,,,0.00,Wunderground v.1.15,2013-03-05 02:55:00,
2013-03-04 21:05:00,30.5,15.8,30.09,NW,304,8.0,10.0,54,0.00,,,0.00,Wunderground v.1.15,2013-03-05 03:05:00,
2013-03-04 21:15:00,30.0,15.3,30.10,WNW,293,10.0,10.0,54,0.00,,,0.00,Wunderground v.1.15,2013-03-05 03:15:00,
2013-03-04 21:25:00,29.6,15.4,30.10,NW,321,9.0,10.0,55,0.00,,,0.00,Wunderground v.1.15,2013-03-05 03:25:00,
2013-03-04 21:35:00,29.2,15.4,30.10,WNW,290,10.0,12.0,56,0.00,,,0.00,Wunderground v.1.15,2013-03-05 03:35:00,
2013-03-04 21:40:00,29.1,15.3,30.10,WNW,300,10.0,10.0,56,0.00,,,0.00,Wunderground v.1.15,2013-03-05 03:40:00,
2013-03-04 21:50:00,28.7,15.8,30.10,WNW,302,9.0,10.0,58,0.00,,,0.00,Wunderground v.1.15,2013-03-05 03:50:00,
2013-03-04 21:55:00,28.4,15.9,30.10,WNW,302,10.0,12.0,59,0.00,,,0.00,Wunderground v.1.15,2013-03-05 03:55:00,
2013-03-04 22:05:00,27.9,16.9,30.11,WNW,293,10.0,11.0,63,0.00,,,0.00,Wunderground v.1.15,2013-03-05 04:05:00,
2013-03-04 22:15:00,27.6,17.0,30.12,WNW,291,9.0,11.0,64,0.00,,,0.00,Wunderground v.1.15,2013-03-05 04:15:00,
2013-03-04 22:35:00,27.2,17.3,30.11,NW,307,7.0,7.0,66,0.00,,,0.00,Wunderground v.1.15,2013-03-05 04:35:00,
2013-03-04 22:45:00,26.9,17.4,30.11,WNW,288,8.0,9.0,67,0.00,,,0.00,Wunderground v.1.15,2013-03-05 04:45:00,
2013-03-04 22:50:00,26.7,17.6,30.11,NW,311,8.0,8.0,68,0.00,,,0.00,Wunderground v.1.15,2013-03-05 04:50:00,
2013-03-04 23:00:00,26.5,17.4,30.11,NW,311,9.0,9.0,68,0.00,,,0.00,Wunderground v.1.15,2013-03-05 05:00:00,
2013-03-04 23:05:00,26.4,17.3,30.11,NW,323,7.0,9.0,68,0.00,,,0.00,Wunderground v.1.15,2013-03-05 05:05:00,
2013-03-04 23:15:00,26.3,17.5,30.10,NW,309,6.0,6.0,69,0.00,,,0.00,Wunderground v.1.15,2013-03-05 05:15:00,
2013-03-04 23:20:00,26.3,17.2,30.10,WNW,293,8.0,8.0,68,0.00,,,0.00,Wunderground v.1.15,2013-03-05 05:20:00,
2013-03-04 23:25:00,26.3,16.8,30.11,NW,307,9.0,9.0,67,0.00,,,0.00,Wunderground v.1.15,2013-03-05 05:25:00,
2013-03-04 23:35:00,26.0,16.5,30.11,WNW,297,8.0,9.0,67,0.00,,,0.00,Wunderground v.1.15,2013-03-05 05:35:00,
2013-03-04 23:45:00,25.8,16.3,30.11,WNW,283,7.0,7.0,67,0.00,,,0.00,Wunderground v.1.15,2013-03-05 05:45:00,
2013-03-04 23:55:00,25.7,15.9,30.11,NW,321,7.0,7.0,66,0.00,,,0.00,Wunderground v.1.15,2013-03-05 05:55:00,